Time;durP1;ratioP1;P1;durP2;ratioP2;P2;SDS_P1;SDS_P2;PMS_P1;PMS_P2;Temp;Humidity;BMP_temperature;BMP_pressure;BME280_temperature;BME280_humidity;BME280_pressure;Samples;Min_cycle;Max_cycle;Signal;HPM_P1;HPM_P2
2023/06/22 00:01:01;;;;;;;23.45;16.05;;;;;;;18.16;100.00;101959.59;5001161;28;20033;-76
2023/06/22 00:03:26;;;;;;;24.58;15.30;;;;;;;18.21;100.00;101953.53;5011747;28;20092;-76
2023/06/22 00:05:52;;;;;;;28.83;17.05;;;;;;;18.23;100.00;101948.72;4997827;28;20031;-76
2023/06/22 00:08:18;;;;;;;27.52;16.30;;;;;;;18.12;100.00;101947.44;5011065;28;20439;-76
2023/06/22 00:10:44;;;;;;;25.73;16.40;;;;;;;18.05;100.00;101951.19;5011931;28;20091;-76
2023/06/22 00:13:10;;;;;;;27.20;15.63;;;;;;;18.02;100.00;101952.44;5012121;28;20026;-76
2023/06/22 00:15:38;;;;;;;24.27;14.40;;;;;;;18.00;100.00;101951.81;4994211;28;20049;-75
2023/06/22 00:18:04;;;;;;;22.85;13.85;;;;;;;17.97;100.00;101954.94;5010033;28;20125;-76
2023/06/22 00:20:29;;;;;;;21.48;14.65;;;;;;;17.94;100.00;101949.91;4994626;28;20168;-77
2023/06/22 00:22:56;;;;;;;23.30;16.00;;;;;;;17.89;100.00;101952.41;5012572;28;20045;-77
2023/06/22 00:25:21;;;;;;;23.95;15.60;;;;;;;17.88;100.00;101956.19;4999280;28;20113;-77
2023/06/22 00:27:47;;;;;;;24.75;14.75;;;;;;;17.90;100.00;101954.06;4995041;28;20042;-76
2023/06/22 00:30:13;;;;;;;23.48;14.82;;;;;;;17.94;100.00;101955.34;5013245;28;20052;-77
2023/06/22 00:32:38;;;;;;;24.25;15.60;;;;;;;17.95;100.00;101946.13;5013997;28;20057;-76
2023/06/22 00:35:04;;;;;;;26.05;15.85;;;;;;;17.91;100.00;101942.16;5012497;28;20384;-76
2023/06/22 00:37:29;;;;;;;23.60;15.90;;;;;;;17.88;100.00;101945.28;5012452;28;20400;-76
2023/06/22 00:39:56;;;;;;;26.48;15.98;;;;;;;17.90;100.00;101944.00;5012340;28;20025;-77
2023/06/22 00:42:21;;;;;;;24.95;15.88;;;;;;;17.88;100.00;101942.56;5002248;28;20037;-76
2023/06/22 00:44:46;;;;;;;29.13;16.73;;;;;;;17.86;100.00;101947.34;5011768;28;20030;-77
2023/06/22 00:47:15;;;;;;;28.63;16.77;;;;;;;17.80;100.00;101946.28;5011493;28;20068;-76
2023/06/22 00:49:40;;;;;;;28.48;15.20;;;;;;;17.75;100.00;101946.88;5011948;28;20037;-75
2023/06/22 00:52:13;;;;;;;21.58;15.20;;;;;;;17.72;100.00;101939.09;4994432;28;20037;-77
2023/06/22 00:54:45;;;;;;;27.83;17.17;;;;;;;17.77;100.00;101933.88;5006331;28;20528;-76
2023/06/22 00:57:12;;;;;;;30.23;16.73;;;;;;;17.77;100.00;101938.47;5031417;28;20036;-77
2023/06/22 00:59:39;;;;;;;25.77;16.52;;;;;;;17.77;100.00;101931.16;5031216;28;20033;-77
2023/06/22 01:02:04;;;;;;;28.20;17.67;;;;;;;17.81;100.00;101933.50;5012389;28;20400;-77
2023/06/22 01:04:37;;;;;;;31.92;19.52;;;;;;;17.82;100.00;101927.00;5009852;28;20030;-77
2023/06/22 01:07:08;;;;;;;27.80;17.83;;;;;;;17.81;100.00;101922.63;5010402;28;20026;-77
2023/06/22 01:09:39;;;;;;;29.63;19.40;;;;;;;17.84;100.00;101922.22;5021132;28;20136;-76
2023/06/22 01:12:06;;;;;;;31.33;19.02;;;;;;;17.81;100.00;101926.19;4993465;28;20504;-76
2023/06/22 01:14:47;;;;;;;32.65;19.52;;;;;;;17.81;100.00;101920.72;5007326;28;20026;-77
2023/06/22 01:17:16;;;;;;;32.97;18.67;;;;;;;17.80;100.00;101918.19;4993431;28;20058;-78
2023/06/22 01:19:54;;;;;;;35.97;20.38;;;;;;;17.75;100.00;101925.06;5000263;28;20024;-76
2023/06/22 01:22:21;;;;;;;32.67;20.00;;;;;;;17.67;100.00;101927.97;5011091;28;20041;-76
2023/06/22 01:25:05;;;;;;;33.22;20.23;;;;;;;17.65;100.00;101930.06;4993138;28;20026;-76
2023/06/22 01:27:45;;;;;;;36.88;21.02;;;;;;;17.64;100.00;101928.38;4994963;28;20030;-77
2023/06/22 01:30:11;;;;;;;32.85;19.75;;;;;;;17.57;100.00;101921.22;5016934;28;20026;-76
2023/06/22 01:32:38;;;;;;;36.45;21.10;;;;;;;17.53;100.00;101920.78;4992152;28;20026;-77
2023/06/22 01:35:06;;;;;;;33.38;19.80;;;;;;;17.53;100.00;101923.50;4992825;28;20373;-76
2023/06/22 01:37:33;;;;;;;;;;;;;;;17.55;100.00;101924.13;4993558;28;20056;-76
2023/06/22 01:39:59;;;;;;;32.60;19.40;;;;;;;17.57;100.00;101926.69;4992898;28;19917;-76
2023/06/22 01:42:24;;;;;;;35.38;20.23;;;;;;;17.60;100.00;101921.66;4992776;28;20084;-76
2023/06/22 01:44:52;;;;;;;33.75;19.80;;;;;;;17.59;100.00;101925.44;5002282;28;20044;-75
2023/06/22 01:47:17;;;;;;;32.97;19.23;;;;;;;17.61;100.00;101920.59;4997140;28;20030;-76
2023/06/22 01:49:43;;;;;;;33.58;20.42;;;;;;;17.62;100.00;101914.13;4992505;28;20495;-77
2023/06/22 01:52:08;;;;;;;31.13;19.48;;;;;;;17.63;100.00;101921.25;4993200;28;20461;-77
2023/06/22 01:54:34;;;;;;;35.70;20.30;;;;;;;17.54;100.00;101917.03;4993454;28;20116;-76
2023/06/22 01:57:00;;;;;;;34.03;19.55;;;;;;;17.46;100.00;101920.75;4998428;28;20117;-76
2023/06/22 01:59:42;;;;;;;33.25;20.13;;;;;;;17.46;100.00;101922.66;5007637;28;20045;-76
2023/06/22 02:02:10;;;;;;;30.80;19.42;;;;;;;17.43;100.00;101921.16;4992779;28;20465;-76
2023/06/22 02:04:42;;;;;;;36.38;19.52;;;;;;;17.45;100.00;101918.22;5006387;28;20033;-76
2023/06/22 02:07:13;;;;;;;38.90;19.98;;;;;;;17.46;100.00;101925.38;4999456;28;20525;-76
2023/06/22 02:09:42;;;;;;;29.67;17.73;;;;;;;17.40;100.00;101916.09;4992671;28;20469;-76
2023/06/22 02:12:08;;;;;;;32.33;19.80;;;;;;;17.40;100.00;101920.72;4991821;28;20076;-76
2023/06/22 02:14:34;;;;;;;31.50;18.92;;;;;;;17.40;100.00;101920.72;4993212;28;20041;-76
2023/06/22 02:17:00;;;;;;;31.52;20.08;;;;;;;17.38;100.00;101917.34;4980259;28;20023;-76
2023/06/22 02:19:26;;;;;;;33.72;20.17;;;;;;;17.31;100.00;101914.59;4978353;28;20472;-76
2023/06/22 02:21:52;;;;;;;30.38;18.83;;;;;;;17.28;100.00;101913.13;4991461;28;20038;-75
2023/06/22 02:24:17;;;;;;;33.65;19.35;;;;;;;17.24;100.00;101919.97;4998054;28;20035;-76
2023/06/22 02:26:45;;;;;;;31.42;19.40;;;;;;;17.21;100.00;101917.66;5030211;28;20037;-75
2023/06/22 02:29:10;;;;;;;;;;;;;;;17.22;100.00;101918.50;5016844;28;20030;-76
2023/06/22 02:31:36;;;;;;;32.03;18.70;;;;;;;17.22;100.00;101916.66;5030107;28;19916;-76
2023/06/22 02:34:01;;;;;;;32.42;19.33;;;;;;;17.20;100.00;101910.56;5020429;28;20083;-77
2023/06/22 02:36:27;;;;;;;32.30;19.17;;;;;;;17.21;100.00;101906.78;5029686;28;20040;-77
2023/06/22 02:38:54;;;;;;;34.38;19.52;;;;;;;17.22;100.00;101902.19;5012493;28;20076;-76
2023/06/22 02:41:19;;;;;;;30.10;17.67;;;;;;;17.23;100.00;101907.44;4992995;28;20026;-76
2023/06/22 02:43:45;;;;;;;31.35;19.10;;;;;;;17.28;100.00;101906.84;5010543;28;20041;-76
2023/06/22 02:46:12;;;;;;;30.73;18.35;;;;;;;17.27;100.00;101900.56;5009014;28;20395;-77
2023/06/22 02:48:38;;;;;;;32.38;19.30;;;;;;;17.22;100.00;101897.59;5001621;28;20034;-76
2023/06/22 02:51:03;;;;;;;26.90;17.85;;;;;;;17.21;100.00;101906.78;5024794;28;20399;-76
2023/06/22 02:53:28;;;;;;;32.35;19.98;;;;;;;17.22;100.00;101907.63;5010474;28;20021;-76
2023/06/22 02:55:55;;;;;;;32.50;19.77;;;;;;;17.16;100.00;101908.44;4992545;28;20373;-76
2023/06/22 02:58:21;;;;;;;30.25;18.25;;;;;;;17.11;100.00;101906.28;5009178;28;20038;-77
2023/06/22 03:00:46;;;;;;;33.67;19.55;;;;;;;17.07;100.00;101910.47;5009877;28;20110;-76
2023/06/22 03:03:12;;;;;;;32.58;19.42;;;;;;;17.03;100.00;101910.00;5010319;28;20117;-77
2023/06/22 03:05:37;;;;;;;35.10;20.17;;;;;;;17.01;100.00;101919.41;5007583;28;20038;-77
2023/06/22 03:08:02;;;;;;;31.08;18.27;;;;;;;17.01;100.00;101927.56;5010023;28;20101;-76
2023/06/22 03:10:28;;;;;;;34.72;20.02;;;;;;;16.99;100.00;101929.66;5012762;28;20053;-77
2023/06/22 03:12:55;;;;;;;34.38;20.20;;;;;;;16.94;100.00;101938.41;5013465;28;20034;-76
2023/06/22 03:15:20;;;;;;;42.95;19.95;;;;;;;16.92;100.00;101923.31;5013577;28;20030;-78
2023/06/22 03:17:46;;;;;;;36.20;19.98;;;;;;;16.93;100.00;101916.84;5011413;28;20455;-76
2023/06/22 03:20:11;;;;;;;38.25;19.40;;;;;;;16.98;100.00;101896.19;5018630;28;20064;-77
2023/06/22 03:22:41;;;;;;;34.08;21.13;;;;;;;17.00;100.00;101890.53;5020663;28;20049;-75
2023/06/22 03:25:10;;;;;;;40.83;22.70;;;;;;;16.99;100.00;101880.72;5012691;28;20041;-77
2023/06/22 03:27:36;;;;;;;41.90;22.80;;;;;;;17.04;100.00;101878.25;5010816;28;20033;-77
2023/06/22 03:30:02;;;;;;;41.30;24.63;;;;;;;17.06;100.00;101876.13;5000103;28;20536;-77
2023/06/22 03:32:28;;;;;;;39.78;21.88;;;;;;;17.00;100.00;101879.66;5006074;28;20101;-77
2023/06/22 03:34:53;;;;;;;46.72;24.25;;;;;;;17.02;100.00;101880.31;4998713;28;20022;-76
2023/06/22 03:37:19;;;;;;;41.58;24.60;;;;;;;17.01;100.00;101874.03;5013349;28;20057;-76
2023/06/22 03:39:44;;;;;;;45.55;24.05;;;;;;;17.04;100.00;101880.97;5013171;28;20029;-76
2023/06/22 03:42:09;;;;;;;43.25;24.70;;;;;;;17.08;100.00;101884.94;5013427;28;20091;-76
2023/06/22 03:44:36;;;;;;;45.13;25.27;;;;;;;17.03;100.00;101882.81;5008902;28;20392;-76
2023/06/22 03:47:02;;;;;;;46.83;25.58;;;;;;;16.94;100.00;101883.19;4998795;28;20038;-77
2023/06/22 03:49:28;;;;;;;43.78;26.27;;;;;;;16.93;100.00;101889.66;4993707;28;20121;-76
2023/06/22 03:51:53;;;;;;;47.83;26.40;;;;;;;16.88;100.00;101880.22;5013121;28;20587;-76
2023/06/22 03:54:18;;;;;;;49.10;25.00;;;;;;;16.93;100.00;101887.78;5012627;28;20460;-76
2023/06/22 03:56:44;;;;;;;50.50;27.52;;;;;;;16.98;100.00;101879.88;5013176;28;20105;-75
2023/06/22 03:59:09;;;;;;;49.50;27.38;;;;;;;16.99;100.00;101880.72;5012934;28;20037;-77
2023/06/22 04:01:35;;;;;;;51.83;26.85;;;;;;;17.00;100.00;101883.22;5012403;28;20524;-76
2023/06/22 04:04:00;;;;;;;42.05;24.23;;;;;;;17.04;100.00;101883.69;5011356;28;20125;-77
2023/06/22 04:06:26;;;;;;;50.03;25.55;;;;;;;17.05;100.00;101879.91;4998077;28;20489;-76
2023/06/22 04:08:51;;;;;;;50.38;27.70;;;;;;;17.09;100.00;101873.88;5006399;28;20033;-76
2023/06/22 04:11:18;;;;;;;48.97;27.60;;;;;;;17.15;100.00;101872.22;5010671;28;20054;-77
2023/06/22 04:13:43;;;;;;;56.05;28.10;;;;;;;17.15;100.00;101880.38;4993893;28;20035;-76
2023/06/22 04:16:08;;;;;;;55.58;28.58;;;;;;;17.28;100.00;101874.19;5012159;28;20072;-75
2023/06/22 04:18:34;;;;;;;51.78;28.85;;;;;;;17.30;100.00;101877.56;4994092;28;20088;-75
2023/06/22 04:20:59;;;;;;;49.00;27.17;;;;;;;17.37;100.00;101883.00;5019949;28;20061;-76
2023/06/22 04:23:24;;;;;;;51.38;27.23;;;;;;;17.43;100.00;101888.50;5010734;28;20408;-76
2023/06/22 04:25:51;;;;;;;50.35;28.25;;;;;;;17.51;100.00;101882.06;5010477;28;20130;-76
2023/06/22 04:28:16;;;;;;;54.95;28.60;;;;;;;17.55;100.00;101889.59;5010149;28;20421;-76
2023/06/22 04:30:46;;;;;;;51.03;27.70;;;;;;;17.66;100.00;101890.06;5010312;28;20041;-76
2023/06/22 04:33:15;;;;;;;56.38;28.38;;;;;;;17.75;100.00;101883.41;5010194;28;20034;-76
2023/06/22 04:35:43;;;;;;;51.03;27.45;;;;;;;17.89;100.00;101885.16;5016685;28;20056;-75
2023/06/22 04:38:09;;;;;;;49.35;28.38;;;;;;;17.96;100.00;101882.44;5013051;28;20056;-76
2023/06/22 04:40:34;;;;;;;46.83;26.27;;;;;;;18.02;100.00;101881.63;5009861;28;20469;-76
2023/06/22 04:43:02;;;;;;;46.83;26.20;;;;;;;18.12;100.00;101879.34;4993307;28;20446;-76
2023/06/22 04:45:29;;;;;;;47.42;25.98;;;;;;;18.26;100.00;101876.63;4999952;28;20034;-76
2023/06/22 04:47:54;;;;;;;48.85;27.75;;;;;;;18.37;100.00;101874.13;5002059;28;20040;-76
2023/06/22 04:50:21;;;;;;;43.80;25.23;;;;;;;18.53;100.00;101861.94;5012491;28;20456;-76
2023/06/22 04:52:47;;;;;;;42.28;25.25;;;;;;;18.71;100.00;101868.66;5030068;28;20025;-75
2023/06/22 04:55:12;;;;;;;44.03;25.02;;;;;;;18.85;100.00;101870.34;5019518;28;20527;-76
2023/06/22 04:57:39;;;;;;;42.10;25.75;;;;;;;18.79;100.00;101872.03;5007616;28;20483;-76
2023/06/22 05:00:17;;;;;;;43.05;23.95;;;;;;;18.86;100.00;101861.13;5009531;28;20060;-76
2023/06/22 05:02:44;;;;;;;43.28;24.65;;;;;;;18.90;100.00;101856.91;5010588;28;20041;-76
2023/06/22 05:05:13;;;;;;;45.10;23.97;;;;;;;18.94;100.00;101862.81;5011931;28;20123;-77
2023/06/22 05:07:42;;;;;;;38.70;23.58;;;;;;;18.96;100.00;101866.16;4996370;28;20033;-76
2023/06/22 05:10:08;;;;;;;42.90;23.40;;;;;;;18.98;100.00;101864.88;4993474;28;20061;-76
2023/06/22 05:12:33;;;;;;;37.13;22.30;;;;;;;19.12;100.00;101860.25;5011515;28;20108;-75
2023/06/22 05:14:58;;;;;;;35.30;20.35;;;;;;;19.14;100.00;101873.66;5011794;28;20033;-75
2023/06/22 05:17:24;;;;;;;35.65;20.90;;;;;;;19.24;100.00;101857.69;5009990;28;20535;-77
2023/06/22 05:19:50;;;;;;;35.92;21.58;;;;;;;19.24;100.00;101863.97;5011505;28;20104;-76
2023/06/22 05:22:15;;;;;;;35.38;20.17;;;;;;;19.27;100.00;101862.69;5011304;28;20113;-76
2023/06/22 05:24:41;;;;;;;35.50;20.70;;;;;;;19.28;100.00;101864.41;5009796;28;20498;-77
2023/06/22 05:27:07;;;;;;;37.50;21.23;;;;;;;19.32;100.00;101865.63;5002666;28;20113;-76
2023/06/22 05:29:32;;;;;;;29.27;19.02;;;;;;;19.36;100.00;101866.06;4999608;28;20203;-76
2023/06/22 05:31:57;;;;;;;31.27;19.13;;;;;;;19.39;100.00;101858.25;5010255;28;20041;-76
2023/06/22 05:34:23;;;;;;;29.25;17.75;;;;;;;19.45;100.00;101856.56;5008907;28;20037;-76
2023/06/22 05:36:48;;;;;;;32.35;19.98;;;;;;;19.47;100.00;101862.66;5010732;28;20036;-76
2023/06/22 05:39:14;;;;;;;32.13;19.17;;;;;;;19.53;100.00;101848.13;4992061;28;20024;-75
2023/06/22 05:41:41;;;;;;;30.45;17.52;;;;;;;19.58;100.00;101845.56;5010857;28;20546;-77
2023/06/22 05:44:06;;;;;;;27.33;16.98;;;;;;;19.67;100.00;101857.13;5011326;28;20060;-74
2023/06/22 05:46:32;;;;;;;28.67;15.63;;;;;;;19.76;100.00;101855.00;5010138;28;20050;-75
2023/06/22 05:48:57;;;;;;;27.05;16.65;;;;;;;19.81;100.00;101847.81;5010584;28;20399;-75
2023/06/22 05:51:22;;;;;;;26.92;16.27;;;;;;;19.86;100.00;101842.53;5011772;28;20531;-77
2023/06/22 05:53:49;;;;;;;21.85;15.68;;;;;;;19.84;100.00;101838.34;5011487;28;20494;-75
2023/06/22 05:56:15;;;;;;;26.00;16.37;;;;;;;19.95;100.00;101840.34;5009463;28;20074;-76
2023/06/22 05:58:41;;;;;;;23.77;15.02;;;;;;;20.16;100.00;101844.63;5001630;28;20387;-77
2023/06/22 06:01:06;;;;;;;22.83;14.10;;;;;;;20.33;100.00;101839.47;4991141;28;20179;-76
2023/06/22 06:03:32;;;;;;;24.45;14.77;;;;;;;20.50;100.00;101840.56;5011877;28;20097;-76
2023/06/22 06:05:57;;;;;;;19.95;13.88;;;;;;;20.52;100.00;101834.91;5012035;28;20040;-77
2023/06/22 06:08:22;;;;;;;27.85;14.88;;;;;;;20.58;100.00;101834.03;5001382;28;20026;-76
2023/06/22 06:10:48;;;;;;;23.83;14.57;;;;;;;20.61;100.00;101837.13;5005859;28;20551;-78
2023/06/22 06:13:13;;;;;;;24.35;15.45;;;;;;;20.57;100.00;101837.81;5014222;28;20045;-77
2023/06/22 06:15:39;;;;;;;26.75;16.73;;;;;;;20.51;100.00;101830.47;5010029;28;20072;-78
2023/06/22 06:18:05;;;;;;;29.55;17.00;;;;;;;20.48;100.00;101825.44;5007295;28;20495;-76
2023/06/22 06:20:31;;;;;;;32.53;16.55;;;;;;;20.53;100.00;101833.81;5008321;28;20053;-77
2023/06/22 06:22:56;;;;;;;31.85;16.60;;;;;;;20.59;100.00;101836.53;5007659;28;20030;-77
2023/06/22 06:25:22;;;;;;;28.83;16.85;;;;;;;20.70;100.00;101845.91;5007916;28;20068;-77
2023/06/22 06:27:49;;;;;;;33.25;18.33;;;;;;;20.80;100.00;101842.63;5005101;28;20033;-77
2023/06/22 06:30:16;;;;;;;29.10;15.60;;;;;;;20.78;100.00;101831.94;5007686;28;20038;-77
2023/06/22 06:32:42;;;;;;;23.63;16.48;;;;;;;20.76;100.00;101845.00;4989675;28;20971;-75
2023/06/22 06:35:11;;;;;;;28.02;16.35;;;;;;;20.80;100.00;101840.75;5006424;28;20046;-76
2023/06/22 06:37:38;;;;;;;23.50;15.90;;;;;;;20.91;100.00;101835.59;5003875;28;20023;-77
2023/06/22 06:40:06;;;;;;;24.50;15.52;;;;;;;21.03;100.00;101822.81;5004446;28;20018;-77
2023/06/22 06:42:32;;;;;;;25.25;16.70;;;;;;;21.18;100.00;101823.28;5007481;28;20061;-76
2023/06/22 06:44:57;;;;;;;21.25;15.20;;;;;;;21.38;100.00;101824.97;5008140;28;20033;-76
2023/06/22 06:47:23;;;;;;;26.65;14.32;;;;;;;21.61;100.00;101824.25;4992078;28;20155;-77
2023/06/22 06:49:48;;;;;;;42.90;16.35;;;;;;;21.72;100.00;101815.22;5010546;28;20064;-77
2023/06/22 06:52:13;;;;;;;22.90;14.00;;;;;;;21.92;100.00;101813.03;5011386;28;20057;-77
2023/06/22 06:54:39;;;;;;;21.08;13.13;;;;;;;22.13;100.00;101810.81;5010500;28;20447;-76
2023/06/22 06:57:04;;;;;;;23.88;13.90;;;;;;;22.32;100.00;101804.19;5010320;28;20032;-77
2023/06/22 06:59:30;;;;;;;17.13;13.32;;;;;;;22.46;100.00;101799.34;5012708;28;20021;-77
2023/06/22 07:01:55;;;;;;;21.23;12.98;;;;;;;22.87;100.00;101794.78;5017837;28;20030;-77
2023/06/22 07:04:21;;;;;;;16.10;12.13;;;;;;;23.50;100.00;101795.00;5014213;28;20018;-78
2023/06/22 07:06:46;;;;;;;17.45;11.85;;;;;;;24.12;100.00;101800.56;5014672;28;20044;-77
2023/06/22 07:09:12;;;;;;;17.75;11.73;;;;;;;24.86;100.00;101789.31;5010544;28;20045;-77
2023/06/22 07:11:37;;;;;;;16.33;11.15;;;;;;;25.86;100.00;101796.56;4999428;28;20389;-76
2023/06/22 07:14:02;;;;;;;19.48;10.98;;;;;;;26.36;100.00;101781.53;5009778;28;20058;-76
2023/06/22 07:16:28;;;;;;;14.30;9.70;;;;;;;26.74;100.00;101785.13;5011228;28;20026;-76
2023/06/22 07:18:54;;;;;;;13.55;9.80;;;;;;;27.01;100.00;101780.25;5010033;28;20029;-76
2023/06/22 07:21:19;;;;;;;11.90;8.85;;;;;;;27.28;100.00;101788.44;5012848;28;20034;-77
2023/06/22 07:23:44;;;;;;;14.52;8.57;;;;;;;27.50;98.53;101785.44;5010624;28;20492;-76
2023/06/22 07:26:12;;;;;;;9.35;7.55;;;;;;;27.79;98.35;101779.41;5009903;28;20066;-77
2023/06/22 07:28:38;;;;;;;9.95;7.07;;;;;;;28.06;98.08;101767.25;5009304;28;20113;-76
2023/06/22 07:31:04;;;;;;;10.43;7.22;;;;;;;28.65;91.76;101775.78;5010408;28;20125;-78
2023/06/22 07:33:29;;;;;;;11.05;7.90;;;;;;;28.81;87.97;101781.28;5011902;28;20037;-77
2023/06/22 07:35:55;;;;;;;8.48;6.43;;;;;;;28.73;88.93;101770.78;5011207;28;20022;-77
2023/06/22 07:38:20;;;;;;;7.82;6.35;;;;;;;29.16;87.36;101773.97;5009733;28;20026;-76
2023/06/22 07:40:47;;;;;;;9.52;6.65;;;;;;;29.46;84.68;101775.72;5010975;28;20520;-77
2023/06/22 07:43:12;;;;;;;9.10;6.22;;;;;;;29.62;81.49;101766.22;5013512;28;20408;-77
2023/06/22 07:45:39;;;;;;;7.63;5.10;;;;;;;29.75;78.79;101759.19;5016093;28;20374;-78
2023/06/22 07:48:05;;;;;;;9.20;5.18;;;;;;;29.66;76.30;101750.66;5013390;28;20076;-76
2023/06/22 07:50:31;;;;;;;7.93;5.20;;;;;;;29.60;76.40;101756.53;5016468;28;20033;-77
2023/06/22 07:52:56;;;;;;;8.95;4.07;;;;;;;29.62;78.06;101746.78;4996175;28;20022;-78
2023/06/22 07:55:21;;;;;;;7.10;4.40;;;;;;;29.67;77.38;101752.31;5016231;28;20050;-77
2023/06/22 07:57:48;;;;;;;6.95;4.20;;;;;;;29.59;77.21;101735.44;5015672;28;20637;-78
2023/06/22 08:00:14;;;;;;;6.07;4.30;;;;;;;29.81;77.71;101741.41;5011362;28;20037;-78
2023/06/22 08:02:41;;;;;;;6.17;4.73;;;;;;;30.04;73.74;101738.97;5010575;28;20034;-78
2023/06/22 08:05:08;;;;;;;9.07;4.68;;;;;;;29.67;75.04;101737.63;5015394;28;20036;-78
2023/06/22 08:07:33;;;;;;;;;;;;;;;29.41;72.13;101743.34;5013931;28;20030;-79
2023/06/22 08:09:59;;;;;;;4.03;3.20;;;;;;;29.35;72.51;101733.38;5015451;28;20366;-77
2023/06/22 08:12:24;;;;;;;5.35;3.60;;;;;;;29.00;73.11;101735.19;5013096;28;20041;-79
2023/06/22 08:14:50;;;;;;;5.65;3.40;;;;;;;28.87;71.54;101724.75;5016777;28;20038;-77
2023/06/22 08:17:15;;;;;;;3.83;3.20;;;;;;;28.83;73.44;101729.19;5011148;28;20041;-77
2023/06/22 08:19:41;;;;;;;4.10;3.70;;;;;;;28.91;73.53;101733.31;5011979;28;20581;-78
2023/06/22 08:22:06;;;;;;;6.75;3.42;;;;;;;28.83;74.09;101732.81;5015184;28;20109;-77
2023/06/22 08:24:32;;;;;;;6.20;3.25;;;;;;;28.89;74.98;101737.19;5015249;28;20029;-78
2023/06/22 08:26:57;;;;;;;5.95;3.22;;;;;;;28.71;74.12;101737.00;5013473;28;20026;-77
2023/06/22 08:29:22;;;;;;;6.50;3.53;;;;;;;28.98;72.63;101739.38;5011617;28;20045;-78
2023/06/22 08:31:48;;;;;;;3.90;3.10;;;;;;;29.31;73.56;101729.53;5011857;28;20418;-78
2023/06/22 08:34:13;;;;;;;4.47;2.92;;;;;;;29.42;73.25;101725.56;5011694;28;20034;-76
2023/06/22 08:36:41;;;;;;;4.70;2.58;;;;;;;29.66;71.45;101725.69;5008813;28;20026;-78
2023/06/22 08:39:07;;;;;;;3.97;2.80;;;;;;;29.94;72.43;101726.84;5008293;28;20030;-77
2023/06/22 08:41:32;;;;;;;4.43;3.00;;;;;;;30.29;70.59;101712.94;5008740;28;20022;-77
2023/06/22 08:43:57;;;;;;;4.88;3.15;;;;;;;30.35;66.27;101711.75;4994560;28;20373;-77
2023/06/22 08:46:29;;;;;;;5.15;3.45;;;;;;;30.00;67.15;101710.97;5010375;28;20201;-78
2023/06/22 08:48:56;;;;;;;5.63;3.50;;;;;;;29.75;68.31;101720.34;5008599;28;20036;-76
2023/06/22 08:51:22;;;;;;;4.10;3.20;;;;;;;29.47;67.20;101714.44;5009864;28;20044;-78
2023/06/22 08:53:47;;;;;;;4.25;3.75;;;;;;;28.94;71.25;101716.94;5009783;28;20538;-78
2023/06/22 08:56:12;;;;;;;5.00;3.50;;;;;;;28.94;72.94;101719.72;5006371;28;20775;-77
2023/06/22 08:58:38;;;;;;;4.22;3.78;;;;;;;28.67;71.95;101723.72;5010416;28;20026;-77
2023/06/22 09:01:04;;;;;;;5.55;4.70;;;;;;;28.49;74.42;101720.72;5009826;28;20266;-77
2023/06/22 09:03:30;;;;;;;9.05;4.20;;;;;;;28.41;74.64;101713.78;5010345;28;20125;-77
2023/06/22 09:05:56;;;;;;;6.68;4.70;;;;;;;28.34;72.66;101713.25;5009889;28;20069;-77
2023/06/22 09:08:21;;;;;;;8.07;3.65;;;;;;;28.62;75.23;101717.34;5006161;28;20482;-77
2023/06/22 09:10:47;;;;;;;6.53;3.97;;;;;;;28.99;73.29;101708.63;5008298;28;20049;-77
2023/06/22 09:13:12;;;;;;;5.10;3.95;;;;;;;29.17;71.43;101707.13;5008771;28;20037;-78
2023/06/22 09:15:38;;;;;;;4.47;3.03;;;;;;;29.57;66.61;101701.59;5012329;28;20038;-76
2023/06/22 09:18:03;;;;;;;5.78;3.13;;;;;;;29.80;66.95;101703.66;5010436;28;20022;-77
2023/06/22 09:20:28;;;;;;;11.63;4.28;;;;;;;29.96;68.65;101701.56;5013210;28;20034;-77
2023/06/22 09:22:54;;;;;;;5.32;4.30;;;;;;;29.86;70.44;101708.06;5010372;28;20033;-78
2023/06/22 09:25:20;;;;;;;6.80;4.88;;;;;;;29.86;69.70;101694.19;5012769;28;20060;-77
2023/06/22 09:27:46;;;;;;;9.00;5.15;;;;;;;29.35;67.63;101693.72;5011985;28;20033;-78
2023/06/22 09:30:11;;;;;;;7.47;4.70;;;;;;;28.79;71.49;101697.63;4993628;28;20033;-77
2023/06/22 09:32:37;;;;;;;6.32;4.30;;;;;;;28.46;75.53;101705.50;5005119;28;20111;-77
2023/06/22 09:35:05;;;;;;;8.43;4.20;;;;;;;28.23;77.57;101696.69;5004890;28;20036;-76
2023/06/22 09:37:31;;;;;;;7.63;4.43;;;;;;;28.23;80.46;101699.44;5004249;28;20025;-76
2023/06/22 09:39:56;;;;;;;5.10;3.83;;;;;;;28.18;78.33;101691.16;5011508;28;20432;-77
2023/06/22 09:42:21;;;;;;;7.20;4.60;;;;;;;28.01;77.54;101696.16;5009942;28;20114;-78
2023/06/22 09:44:47;;;;;;;9.55;4.70;;;;;;;28.00;79.08;101688.97;5008591;28;20165;-77
2023/06/22 09:47:12;;;;;;;9.82;5.50;;;;;;;27.83;80.46;101685.66;5008652;28;20044;-77
2023/06/22 09:49:37;;;;;;;7.88;4.95;;;;;;;27.85;82.66;101677.91;5005699;28;20065;-78
2023/06/22 09:52:03;;;;;;;10.23;6.20;;;;;;;27.73;85.95;101678.19;5007799;28;20030;-78
2023/06/22 09:54:28;;;;;;;7.65;6.20;;;;;;;27.65;85.98;101662.13;5010690;28;20069;-76
2023/06/22 09:56:54;;;;;;;10.25;5.78;;;;;;;27.67;86.50;101669.03;5010509;28;20033;-76
2023/06/22 09:59:19;;;;;;;11.02;6.82;;;;;;;27.43;84.64;101665.16;5010927;28;20036;-76
2023/06/22 10:01:44;;;;;;;10.68;6.18;;;;;;;27.25;85.91;101663.75;5009035;28;20511;-75
2023/06/22 10:04:10;;;;;;;8.43;6.40;;;;;;;27.12;87.60;101670.59;5009979;28;20530;-76
2023/06/22 10:06:35;;;;;;;12.23;6.97;;;;;;;27.13;88.63;101672.28;5009466;28;20068;-76
2023/06/22 10:09:00;;;;;;;9.60;6.25;;;;;;;27.19;89.42;101668.44;5008179;28;20103;-77
2023/06/22 10:11:30;;;;;;;11.95;7.63;;;;;;;27.31;90.22;101679.25;5009916;28;20041;-77
2023/06/22 10:13:55;;;;;;;10.52;6.93;;;;;;;27.30;90.55;101670.13;5006222;28;20033;-77
2023/06/22 10:16:20;;;;;;;10.73;7.20;;;;;;;27.21;88.42;101679.25;5010886;28;20022;-77
2023/06/22 10:18:46;;;;;;;7.22;6.45;;;;;;;26.93;87.37;101673.88;5012680;28;20890;-79
2023/06/22 10:21:11;;;;;;;10.80;7.00;;;;;;;26.69;89.28;101673.53;5013559;28;20040;-79
2023/06/22 10:23:37;;;;;;;9.20;7.50;;;;;;;26.64;92.08;101672.66;5012458;28;20026;-76
2023/06/22 10:26:02;;;;;;;10.13;6.53;;;;;;;26.58;92.97;101673.75;5010438;28;20117;-75
2023/06/22 10:28:27;;;;;;;11.85;8.20;;;;;;;26.54;92.38;101675.38;5008234;28;20038;-77
2023/06/22 10:30:53;;;;;;;9.27;6.28;;;;;;;26.24;90.47;101666.66;4998134;28;20359;-77
2023/06/22 10:33:18;;;;;;;8.82;6.93;;;;;;;25.95;91.42;101668.94;5010937;28;20044;-76
2023/06/22 10:35:44;;;;;;;12.18;6.53;;;;;;;25.80;93.04;101666.91;5007665;28;20038;-77
2023/06/22 10:38:09;;;;;;;10.77;7.20;;;;;;;25.62;95.58;101665.38;5009184;28;20491;-76
2023/06/22 10:40:34;;;;;;;9.77;6.43;;;;;;;25.59;97.43;101665.91;5008461;28;20033;-76
2023/06/22 10:43:00;;;;;;;11.27;6.78;;;;;;;25.60;97.10;101664.78;5008409;28;20036;-77
2023/06/22 10:45:27;;;;;;;9.88;6.97;;;;;;;25.69;99.27;101667.06;5007721;28;20030;-75
2023/06/22 10:47:52;;;;;;;10.55;7.90;;;;;;;25.75;99.84;101664.09;5009247;28;20030;-77
2023/06/22 10:50:18;;;;;;;15.85;8.13;;;;;;;25.74;100.00;101670.69;4992797;28;20038;-77
2023/06/22 10:52:43;;;;;;;14.02;9.20;;;;;;;25.62;100.00;101678.34;5007894;28;20192;-77
2023/06/22 10:55:09;;;;;;;13.27;9.65;;;;;;;25.50;100.00;101672.97;5009232;28;20415;-77
2023/06/22 10:57:36;;;;;;;11.93;8.30;;;;;;;25.37;100.00;101673.41;4988705;28;20033;-76
2023/06/22 11:00:02;;;;;;;13.63;8.27;;;;;;;25.38;99.62;101664.88;5002409;28;20469;-77
2023/06/22 11:02:28;;;;;;;12.13;7.90;;;;;;;25.24;100.00;101674.66;5006177;28;20052;-76
2023/06/22 11:04:54;;;;;;;13.83;7.90;;;;;;;25.24;100.00;101668.31;5004458;28;20519;-76